createdAt,value
2018-11-20T00:01:49.346Z,0.70
2018-11-20T00:04:55.822Z,0.70
2018-11-20T00:07:47.209Z,0.60
2018-11-20T00:10:34.109Z,0.60
2018-11-20T00:13:22.632Z,0.50
2018-11-20T00:16:11.418Z,0.50
2018-11-20T00:19:00.529Z,0.40
2018-11-20T00:21:58.142Z,0.40
2018-11-20T00:24:45.443Z,0.40
2018-11-20T00:27:52.007Z,0.40
2018-11-20T00:30:34.704Z,0.40
2018-11-20T00:33:23.256Z,0.40
2018-11-20T00:36:15.324Z,0.40
2018-11-20T00:38:56.853Z,0.40
2018-11-20T00:41:45.512Z,0.40
2018-11-20T00:44:42.664Z,0.40
2018-11-20T00:47:39.932Z,0.40
2018-11-20T00:50:35.943Z,0.30
2018-11-20T00:53:36.650Z,0.20
2018-11-20T00:56:47.969Z,0.30
2018-11-20T00:59:45.006Z,0.30
2018-11-20T01:02:31.626Z,0.20
2018-11-20T01:05:22.523Z,0.20
2018-11-20T01:08:09.020Z,0.20
2018-11-20T01:10:57.278Z,0.30
2018-11-20T01:13:45.516Z,0.20
2018-11-20T01:16:32.176Z,0.30
2018-11-20T01:19:12.353Z,0.30
2018-11-20T01:22:07.671Z,0.30
2018-11-20T01:24:58.694Z,0.30
2018-11-20T01:27:45.747Z,0.30
2018-11-20T01:30:32.453Z,0.30
2018-11-20T01:33:24.320Z,0.30
2018-11-20T01:36:07.203Z,0.40
2018-11-20T01:38:44.253Z,0.40
2018-11-20T01:41:24.404Z,0.40
2018-11-20T01:44:18.229Z,0.40
2018-11-20T01:47:10.646Z,0.50
2018-11-20T01:49:58.876Z,0.50
2018-11-20T01:52:45.834Z,0.40
2018-11-20T01:55:32.693Z,0.50
2018-11-20T01:58:20.970Z,0.40
2018-11-20T02:01:09.878Z,0.30
2018-11-20T02:04:01.458Z,0.30
2018-11-20T02:06:54.622Z,0.30
2018-11-20T02:09:51.820Z,0.30
2018-11-20T02:12:36.119Z,0.40
2018-11-20T02:15:23.044Z,0.50
2018-11-20T02:18:14.541Z,0.50
2018-11-20T02:21:03.345Z,0.60
2018-11-20T02:24:09.571Z,0.60
2018-11-20T02:26:50.456Z,0.60
2018-11-20T02:29:50.768Z,0.70
2018-11-20T02:32:31.741Z,0.80
2018-11-20T02:35:22.607Z,0.80
2018-11-20T02:38:03.710Z,0.80
2018-11-20T02:41:06.881Z,0.80
2018-11-20T02:43:55.173Z,0.80
2018-11-20T02:46:41.625Z,0.90
2018-11-20T02:49:36.357Z,1.00
2018-11-20T02:52:23.950Z,1.10
2018-11-20T02:55:10.954Z,1.10
2018-11-20T02:58:02.841Z,1.00
2018-11-20T03:00:49.398Z,1.00
2018-11-20T03:03:36.243Z,1.10
2018-11-20T03:06:23.305Z,1.00
2018-11-20T03:09:09.820Z,1.10
2018-11-20T03:11:55.069Z,1.00
2018-11-20T03:14:35.014Z,1.00
2018-11-20T03:17:26.107Z,1.10
2018-11-20T03:20:20.736Z,1.20
2018-11-20T03:23:23.835Z,1.20
2018-11-20T03:26:17.439Z,1.20
2018-11-20T03:29:20.963Z,1.20
2018-11-20T03:32:09.225Z,1.20
2018-11-20T03:34:52.450Z,1.30
2018-11-20T03:37:38.961Z,1.30
2018-11-20T03:40:25.953Z,1.30
2018-11-20T03:43:03.800Z,1.30
2018-11-20T03:45:50.684Z,1.30
2018-11-20T03:48:37.594Z,1.40
2018-11-20T03:51:23.552Z,1.40
2018-11-20T03:54:10.222Z,1.30
2018-11-20T03:56:57.059Z,1.40
2018-11-20T03:59:45.345Z,1.40
2018-11-20T04:02:33.631Z,1.40
2018-11-20T04:05:33.901Z,1.30
2018-11-20T04:08:19.073Z,1.30
2018-11-20T04:11:10.280Z,1.30
2018-11-20T04:13:52.488Z,1.30
2018-11-20T04:16:38.210Z,1.30
2018-11-20T04:19:38.234Z,1.40
2018-11-20T04:22:25.310Z,1.40
2018-11-20T04:25:12.137Z,1.50
2018-11-20T04:28:12.420Z,1.40
2018-11-20T04:31:48.276Z,1.50
2018-11-20T04:34:34.854Z,1.50
2018-11-20T04:37:23.646Z,1.60
2018-11-20T04:40:17.717Z,1.60
2018-11-20T04:43:15.879Z,1.50
2018-11-20T04:46:13.897Z,1.60
2018-11-20T04:49:05.189Z,1.60
2018-11-20T04:51:53.456Z,1.50
2018-11-20T04:54:40.192Z,1.50
2018-11-20T04:57:21.625Z,1.40
2018-11-20T05:00:08.399Z,1.50
2018-11-20T05:03:14.370Z,1.60
2018-11-20T05:06:09.179Z,1.60
2018-11-20T05:08:55.915Z,1.60
2018-11-20T05:11:47.248Z,1.60
2018-11-20T05:14:47.628Z,1.60
2018-11-20T05:17:34.499Z,1.60
2018-11-20T05:20:25.520Z,1.60
2018-11-20T05:23:17.077Z,1.70
2018-11-20T05:26:10.953Z,1.70
2018-11-20T05:34:31.106Z,1.80
2018-11-20T05:37:09.514Z,1.90
2018-11-20T05:39:47.961Z,1.90
2018-11-20T05:42:34.689Z,1.90
2018-11-20T05:45:26.004Z,1.90
2018-11-20T05:48:07.626Z,2.00
2018-11-20T05:51:01.441Z,2.10
2018-11-20T05:53:47.976Z,2.10
2018-11-20T05:56:41.870Z,2.10
2018-11-20T05:59:45.037Z,2.20
2018-11-20T06:02:44.621Z,2.20
2018-11-20T06:05:23.173Z,2.00
2018-11-20T06:08:17.479Z,1.90
2018-11-20T06:11:11.747Z,1.90
2018-11-20T06:14:02.807Z,1.90
2018-11-20T06:16:44.723Z,1.90
2018-11-20T06:19:33.178Z,1.80
2018-11-20T06:22:27.614Z,1.80
2018-11-20T06:25:14.031Z,1.70
2018-11-20T06:28:14.520Z,1.60
2018-11-20T06:31:01.238Z,1.50
2018-11-20T06:33:49.653Z,1.50
2018-11-20T06:36:25.590Z,1.50
2018-11-20T06:39:07.567Z,1.40
2018-11-20T06:41:54.200Z,1.40
2018-11-20T06:44:40.956Z,1.30
2018-11-20T06:47:27.427Z,1.30
2018-11-20T06:50:15.702Z,1.30
2018-11-20T06:52:59.854Z,1.30
2018-11-20T06:55:46.751Z,1.30
2018-11-20T06:58:30.674Z,1.30
2018-11-20T07:01:22.009Z,1.40
2018-11-20T07:04:03.590Z,1.40
2018-11-20T07:07:06.754Z,1.40
2018-11-20T07:09:53.376Z,1.40
2018-11-20T07:12:40.004Z,1.40
2018-11-20T07:15:43.080Z,1.40
2018-11-20T07:18:29.814Z,1.40
2018-11-20T07:21:33.109Z,1.40
2018-11-20T07:24:21.653Z,1.30
2018-11-20T07:27:07.022Z,1.50
2018-11-20T07:30:01.220Z,1.50
2018-11-20T07:32:58.344Z,1.70
2018-11-20T07:35:39.452Z,1.80
2018-11-20T07:38:26.130Z,1.80
2018-11-20T07:41:17.053Z,1.80
2018-11-20T07:44:11.253Z,1.80
2018-11-20T07:47:02.312Z,1.70
2018-11-20T07:49:49.643Z,1.80
2018-11-20T07:52:40.880Z,1.70
2018-11-20T07:55:37.909Z,1.60
2018-11-20T07:58:41.100Z,1.70
2018-11-20T08:01:18.388Z,1.70
2018-11-20T08:04:24.579Z,1.80
2018-11-20T08:07:14.863Z,1.80
2018-11-20T08:10:02.275Z,1.80
2018-11-20T08:12:59.095Z,1.90
2018-11-20T08:18:39.700Z,1.90
2018-11-20T08:21:30.762Z,2.00
2018-11-20T08:24:17.681Z,2.00
2018-11-20T08:27:08.687Z,2.00
2018-11-20T08:29:55.356Z,2.00
2018-11-20T08:32:43.677Z,2.00
2018-11-20T08:35:20.309Z,1.90
2018-11-20T08:38:04.750Z,2.00
2018-11-20T08:40:54.734Z,2.10
2018-11-20T08:43:44.918Z,2.10
2018-11-20T08:46:31.801Z,2.20
2018-11-20T08:49:18.762Z,2.20
2018-11-20T08:52:05.572Z,2.20
2018-11-20T08:54:52.504Z,2.30
2018-11-20T08:57:46.305Z,2.40
2018-11-20T09:00:32.907Z,2.30
2018-11-20T09:03:21.259Z,2.40
2018-11-20T09:06:13.736Z,2.50
2018-11-20T09:08:58.796Z,2.40
2018-11-20T09:11:49.403Z,2.20
2018-11-20T09:14:46.557Z,2.40
2018-11-20T09:17:33.270Z,2.40
2018-11-20T09:20:24.453Z,2.50
2018-11-20T09:23:15.490Z,2.50
2018-11-20T09:26:16.157Z,2.50
2018-11-20T09:29:16.078Z,2.40
2018-11-20T09:32:13.105Z,2.60
2018-11-20T09:35:19.662Z,2.90
2018-11-20T09:38:04.882Z,2.90
2018-11-20T09:41:04.711Z,3.10
2018-11-20T09:44:06.174Z,3.10
2018-11-20T09:46:53.157Z,3.30
2018-11-20T09:49:31.445Z,3.50
2018-11-20T09:52:17.967Z,3.70
2018-11-20T09:55:14.969Z,3.70
2018-11-20T09:57:55.515Z,3.60
2018-11-20T10:00:42.321Z,3.90
2018-11-20T10:03:18.431Z,3.80
2018-11-20T10:05:58.120Z,4.00
2018-11-20T10:08:37.118Z,4.10
2018-11-20T10:11:25.457Z,3.90
2018-11-20T10:14:09.053Z,3.90
2018-11-20T10:16:49.830Z,3.90
2018-11-20T10:19:41.176Z,3.80
2018-11-20T10:22:31.644Z,3.90
2018-11-20T10:25:22.454Z,3.90
2018-11-20T10:28:08.967Z,4.00
2018-11-20T10:30:55.574Z,4.00
2018-11-20T10:33:57.881Z,3.90
2018-11-20T10:36:44.779Z,4.00
2018-11-20T10:39:41.830Z,4.00
2018-11-20T10:42:28.736Z,4.20
2018-11-20T10:45:15.388Z,4.30
2018-11-20T10:48:15.611Z,4.30
2018-11-20T10:51:02.395Z,4.10
2018-11-20T10:53:50.353Z,4.20
2018-11-20T10:56:49.348Z,4.40
2018-11-20T10:59:43.506Z,4.50
2018-11-20T11:02:30.051Z,4.60
2018-11-20T11:05:17.033Z,4.70
2018-11-20T11:08:03.674Z,4.70
2018-11-20T11:10:57.616Z,4.70
2018-11-20T11:13:48.314Z,4.80
2018-11-20T11:16:45.225Z,4.90
2018-11-20T11:19:48.393Z,5.10
2018-11-20T11:22:36.863Z,5.20
2018-11-20T11:25:34.504Z,5.20
2018-11-20T11:28:19.335Z,5.20
2018-11-20T11:31:02.109Z,5.40
2018-11-20T11:33:58.189Z,5.60
2018-11-20T11:36:46.424Z,5.70
2018-11-20T11:39:37.551Z,5.70
2018-11-20T11:42:31.519Z,5.70
2018-11-20T11:45:37.824Z,5.60
2018-11-20T11:48:25.036Z,5.50
2018-11-20T11:51:15.787Z,5.40
2018-11-20T11:54:02.496Z,5.40
2018-11-20T11:56:46.852Z,5.40
2018-11-20T11:59:49.945Z,5.40
2018-11-20T12:05:30.425Z,5.60
2018-11-20T12:08:36.859Z,5.70
2018-11-20T12:11:30.685Z,5.80
2018-11-20T12:14:17.150Z,5.70
2018-11-20T12:17:03.618Z,5.70
2018-11-20T12:19:52.845Z,5.90
2018-11-20T12:22:46.759Z,5.80
2018-11-20T12:25:26.757Z,5.70
2018-11-20T12:28:14.667Z,5.70
2018-11-20T12:31:00.492Z,5.80
2018-11-20T12:34:54.404Z,5.70
2018-11-20T12:37:56.404Z,5.90
2018-11-20T12:40:58.684Z,6.00
2018-11-20T12:43:46.100Z,6.10
2018-11-20T12:46:34.629Z,6.20
2018-11-20T12:49:33.461Z,6.20
2018-11-20T12:52:23.874Z,6.30
2018-11-20T12:55:08.292Z,6.30
2018-11-20T12:57:55.965Z,6.20
2018-11-20T13:00:43.389Z,6.20
2018-11-20T13:03:47.030Z,6.10
2018-11-20T13:06:34.664Z,6.10
2018-11-20T13:09:22.188Z,6.00
2018-11-20T13:12:09.857Z,6.00
2018-11-20T13:15:16.767Z,6.00
2018-11-20T13:18:05.933Z,6.00
2018-11-20T13:20:52.541Z,5.90
2018-11-20T13:26:42.514Z,6.10
2018-11-20T13:29:49.552Z,6.20
2018-11-20T13:32:47.123Z,6.30
2018-11-20T13:35:34.827Z,6.30
2018-11-20T13:38:41.728Z,6.30
2018-11-20T13:41:49.467Z,6.20
2018-11-20T13:50:46.000Z,6.20
2018-11-20T13:53:33.473Z,6.00
2018-11-20T13:59:14.105Z,5.90
2018-11-20T14:02:01.736Z,5.80
2018-11-20T14:04:49.320Z,5.80
2018-11-20T14:07:49.670Z,5.70
2018-11-20T14:10:37.432Z,5.70
2018-11-20T14:13:25.054Z,5.70
2018-11-20T14:16:17.777Z,5.60
2018-11-20T14:19:05.604Z,5.60
2018-11-20T14:24:53.014Z,5.50
2018-11-20T14:27:40.410Z,5.50
2018-11-20T14:30:29.460Z,5.50
2018-11-20T14:33:29.413Z,5.40
2018-11-20T14:36:30.518Z,5.40
2018-11-20T14:39:30.659Z,5.30
2018-11-20T14:42:18.187Z,5.30
2018-11-20T14:45:06.158Z,5.30
2018-11-20T14:47:44.255Z,5.30
2018-11-20T14:50:34.690Z,5.20
2018-11-20T14:53:41.553Z,5.20
2018-11-20T14:56:16.381Z,5.10
2018-11-20T14:59:04.125Z,5.00
2018-11-20T15:01:44.960Z,5.00
2018-11-20T15:04:32.567Z,4.80
2018-11-20T15:07:39.433Z,4.70
2018-11-20T15:10:27.242Z,4.70
2018-11-20T15:13:14.723Z,4.60
2018-11-20T15:16:05.001Z,4.40
2018-11-20T15:18:52.464Z,4.40
2018-11-20T15:21:59.440Z,4.10
2018-11-20T15:24:47.131Z,4.10
2018-11-20T15:27:34.599Z,4.10
2018-11-20T15:33:13.272Z,4.00
2018-11-20T15:36:23.256Z,3.80
2018-11-20T15:39:10.751Z,3.80
2018-11-20T15:41:58.222Z,3.60
2018-11-20T15:44:58.487Z,3.60
2018-11-20T15:47:36.538Z,3.50
2018-11-20T15:50:26.094Z,3.40
2018-11-20T15:53:13.674Z,3.30
2018-11-20T15:56:05.465Z,3.20
2018-11-20T15:58:52.912Z,3.30
2018-11-20T16:01:40.332Z,3.20
2018-11-20T16:04:28.170Z,3.10
2018-11-20T16:07:15.655Z,3.10
2018-11-20T16:10:03.594Z,3.10
2018-11-20T16:12:51.044Z,3.00
2018-11-20T16:15:38.465Z,2.90
2018-11-20T16:18:25.973Z,3.00
2018-11-20T16:21:13.680Z,3.00
2018-11-20T16:24:20.600Z,2.90
2018-11-20T16:27:18.607Z,2.90
2018-11-20T16:30:06.247Z,2.70
2018-11-20T16:32:53.838Z,2.70
2018-11-20T16:35:41.604Z,2.60
2018-11-20T16:38:26.328Z,2.60
2018-11-20T16:41:13.735Z,2.60
2018-11-20T16:44:01.212Z,2.50
2018-11-20T16:46:48.850Z,2.50
2018-11-20T16:49:36.292Z,2.50
2018-11-20T16:52:23.896Z,2.40
2018-11-20T16:55:11.630Z,2.40
2018-11-20T16:57:59.109Z,2.30
2018-11-20T17:00:46.635Z,2.30
2018-11-20T17:03:52.616Z,2.40
2018-11-20T17:06:59.005Z,2.20
2018-11-20T17:09:47.175Z,2.20
2018-11-20T17:12:24.842Z,2.10
2018-11-20T17:15:31.990Z,2.10
2018-11-20T17:18:39.114Z,2.00
2018-11-20T17:21:45.952Z,2.00
2018-11-20T17:24:33.387Z,2.00
2018-11-20T17:27:33.343Z,2.00
2018-11-20T17:30:21.008Z,2.00
2018-11-20T17:33:08.481Z,2.00
2018-11-20T17:36:11.301Z,2.00
2018-11-20T17:39:10.808Z,2.00
2018-11-20T17:42:17.271Z,1.90
2018-11-20T17:45:20.614Z,2.00
2018-11-20T17:48:19.043Z,2.00
2018-11-20T17:51:25.880Z,2.00
2018-11-20T17:54:25.281Z,1.90
2018-11-20T17:57:25.078Z,1.90
2018-11-20T18:00:12.582Z,1.90
2018-11-20T18:03:00.106Z,1.90
2018-11-20T18:06:07.254Z,1.90
2018-11-20T18:09:07.495Z,1.90
2018-11-20T18:12:07.682Z,1.80
2018-11-20T18:14:55.234Z,1.70
2018-11-20T18:17:36.156Z,1.70
2018-11-20T18:20:32.896Z,1.70
2018-11-20T18:23:38.991Z,1.70
2018-11-20T18:26:39.253Z,1.70
2018-11-20T18:29:38.889Z,1.60
2018-11-20T18:32:39.383Z,1.70
2018-11-20T18:35:39.520Z,1.70
2018-11-20T18:38:31.393Z,1.70
2018-11-20T18:41:19.137Z,1.70
2018-11-20T18:44:18.859Z,1.60
2018-11-20T18:50:18.220Z,1.60
2018-11-20T18:53:12.050Z,1.60
2018-11-20T18:56:00.653Z,1.60
2018-11-20T18:59:00.490Z,1.60
2018-11-20T19:01:53.112Z,1.50
2018-11-20T19:04:40.852Z,1.40
2018-11-20T19:07:43.891Z,1.50
2018-11-20T19:13:23.423Z,1.60
2018-11-20T19:16:23.666Z,1.60
2018-11-20T19:19:26.191Z,1.70
2018-11-20T19:22:26.568Z,1.80
2018-11-20T19:25:20.428Z,1.70
2018-11-20T19:28:20.579Z,1.70
2018-11-20T19:31:23.370Z,1.60
2018-11-20T19:34:23.445Z,1.50
2018-11-20T19:37:35.335Z,1.40
2018-11-20T19:40:26.281Z,1.40
2018-11-20T19:43:10.428Z,1.40
2018-11-20T19:46:08.793Z,1.50
2018-11-20T19:48:46.898Z,1.50
2018-11-20T19:51:31.576Z,1.50
2018-11-20T19:54:28.173Z,1.50
2018-11-20T19:57:24.450Z,1.40
2018-11-20T20:00:14.671Z,1.40
2018-11-20T20:03:00.580Z,1.40
2018-11-20T20:05:48.779Z,1.40
2018-11-20T20:08:32.503Z,1.40
2018-11-20T20:11:27.846Z,1.30
2018-11-20T20:14:13.550Z,1.40
2018-11-20T20:16:59.803Z,1.40
2018-11-20T20:19:47.672Z,1.40
2018-11-20T20:22:38.042Z,1.40
2018-11-20T20:25:23.838Z,1.40
2018-11-20T20:28:20.156Z,1.30
2018-11-20T20:31:06.364Z,1.30
2018-11-20T20:33:59.815Z,1.30
2018-11-20T20:36:47.476Z,1.30
2018-11-20T20:39:35.176Z,1.30
2018-11-20T20:42:28.534Z,1.30
2018-11-20T20:45:18.628Z,1.30
2018-11-20T20:48:09.071Z,1.20
2018-11-20T20:50:47.334Z,1.20
2018-11-20T20:53:33.339Z,1.10
2018-11-20T20:56:28.362Z,1.10
2018-11-20T20:59:17.676Z,1.10
2018-11-20T21:02:05.225Z,1.10
2018-11-20T21:05:04.863Z,1.10
2018-11-20T21:07:47.209Z,1.20
2018-11-20T21:10:24.030Z,1.10
2018-11-20T21:13:10.226Z,1.10
2018-11-20T21:16:15.830Z,1.10
2018-11-20T21:19:09.488Z,1.10
2018-11-20T21:21:55.591Z,1.10
2018-11-20T21:24:45.963Z,1.10
2018-11-20T21:27:51.226Z,1.10
2018-11-20T21:30:47.452Z,1.10
2018-11-20T21:33:38.063Z,1.10
2018-11-20T21:36:34.685Z,1.00
2018-11-20T21:39:26.475Z,1.00
2018-11-20T21:42:23.838Z,1.00
2018-11-20T21:45:15.557Z,1.00
2018-11-20T21:47:48.489Z,1.00
2018-11-20T21:50:34.662Z,0.90
2018-11-20T21:53:20.757Z,0.90
2018-11-20T21:56:06.824Z,1.00
2018-11-20T21:58:59.319Z,0.90
2018-11-20T22:02:01.674Z,0.90
2018-11-20T22:04:48.161Z,0.90
2018-11-20T22:07:30.632Z,0.90
2018-11-20T22:10:21.392Z,0.90
2018-11-20T22:13:08.874Z,0.90
2018-11-20T22:15:54.595Z,0.90
2018-11-20T22:18:40.223Z,0.80
2018-11-20T22:21:23.045Z,0.70
2018-11-20T22:24:10.533Z,0.60
2018-11-20T22:26:52.427Z,0.50
2018-11-20T22:29:27.035Z,0.60
2018-11-20T22:32:20.342Z,0.60
2018-11-20T22:35:17.637Z,0.60
2018-11-20T22:37:54.195Z,0.60
2018-11-20T22:40:40.139Z,0.60
2018-11-20T22:43:26.530Z,0.60
2018-11-20T22:46:23.785Z,0.50
2018-11-20T22:49:23.015Z,0.50
2018-11-20T22:52:22.566Z,0.50
2018-11-20T22:55:15.931Z,0.50
2018-11-20T22:57:57.091Z,0.50
2018-11-20T23:00:41.385Z,0.50
2018-11-20T23:03:27.247Z,0.50
2018-11-20T23:06:25.618Z,0.50
2018-11-20T23:08:54.037Z,0.40
2018-11-20T23:11:22.830Z,0.40
2018-11-20T23:13:51.183Z,0.30
2018-11-20T23:16:19.462Z,0.30
2018-11-20T23:18:47.739Z,0.30
2018-11-20T23:21:16.100Z,0.40
2018-11-20T23:23:44.406Z,0.40
2018-11-20T23:26:12.695Z,0.30
2018-11-20T23:28:41.137Z,0.40
2018-11-20T23:31:09.451Z,0.30
2018-11-20T23:33:37.732Z,0.30
2018-11-20T23:36:06.785Z,0.30
2018-11-20T23:38:35.087Z,0.30
2018-11-20T23:41:03.441Z,0.30
2018-11-20T23:43:32.226Z,0.30
2018-11-20T23:46:00.638Z,0.30
2018-11-20T23:48:28.899Z,0.20
2018-11-20T23:50:57.344Z,0.20
2018-11-20T23:53:25.677Z,0.10
2018-11-20T23:55:53.962Z,0.20
2018-11-20T23:58:22.263Z,0.20
